Time;durP1;ratioP1;P1;durP2;ratioP2;P2;SDS_P1;SDS_P2;PMS_P1;PMS_P2;Temp;Humidity;BMP_temperature;BMP_pressure;BME280_temperature;BME280_humidity;BME280_pressure;Samples;Min_cycle;Max_cycle;Signal;HPM_P1;HPM_P2
2021/07/31 00:01:43;;;;;;;5.43;1.10;;;;;;;;;;5046873;28;19978;-69
2021/07/31 00:04:09;;;;;;;5.00;1.38;;;;;;;;;;5046299;28;20037;-68
2021/07/31 00:06:35;;;;;;;;;;;;;;;;;;5047946;28;20052;-69
2021/07/31 00:09:02;;;;;;;3.70;0.97;;;;;;;;;;5063518;28;19916;-69
2021/07/31 00:11:28;;;;;;;3.38;0.90;;;;;;;;;;5049692;28;20124;-68
2021/07/31 00:13:54;;;;;;;4.25;1.38;;;;;;;;;;5066954;28;20049;-68
2021/07/31 00:16:21;;;;;;;5.45;1.48;;;;;;;;;;5056070;28;20047;-69
2021/07/31 00:18:47;;;;;;;4.95;1.30;;;;;;;;;;5050530;28;20041;-69
2021/07/31 00:21:14;;;;;;;5.90;1.25;;;;;;;;;;5052257;28;20037;-69
2021/07/31 00:23:40;;;;;;;4.07;0.90;;;;;;;;;;5050883;28;20041;-69
2021/07/31 00:26:06;;;;;;;3.17;1.08;;;;;;;;;;5050059;28;20033;-69
2021/07/31 00:28:32;;;;;;;4.90;1.23;;;;;;;;;;5050151;28;20048;-68
2021/07/31 00:30:58;;;;;;;4.07;1.17;;;;;;;;;;5049014;28;20036;-70
2021/07/31 00:33:24;;;;;;;;;;;;;;;;;;5049678;28;20048;-69
2021/07/31 00:35:50;;;;;;;8.82;1.48;;;;;;;;;;5049946;28;20328;-69
2021/07/31 00:38:16;;;;;;;14.77;1.65;;;;;;;;;;5049572;28;20040;-67
2021/07/31 00:40:43;;;;;;;8.98;1.35;;;;;;;;;;5050951;28;20076;-69
2021/07/31 00:43:09;;;;;;;4.95;1.33;;;;;;;;;;5048812;28;20045;-68
2021/07/31 00:45:36;;;;;;;3.85;1.00;;;;;;;;;;5049323;28;20033;-69
2021/07/31 00:48:02;;;;;;;5.03;1.17;;;;;;;;;;5049222;28;20045;-69
2021/07/31 00:50:31;;;;;;;3.88;0.95;;;;;;;;;;5049376;28;20041;-68
2021/07/31 00:52:57;;;;;;;2.88;0.95;;;;;;;;;;5048748;28;20543;-69
2021/07/31 00:55:25;;;;;;;6.47;0.90;;;;;;;;;;5049540;28;20037;-69
2021/07/31 00:57:51;;;;;;;3.67;0.85;;;;;;;;;;5049310;28;20044;-69
2021/07/31 01:00:17;;;;;;;2.72;1.00;;;;;;;;;;5065966;28;20444;-69
2021/07/31 01:02:43;;;;;;;8.57;1.52;;;;;;;;;;5065802;28;20094;-69
2021/07/31 01:05:10;;;;;;;4.30;1.13;;;;;;;;;;5050436;28;20064;-69
2021/07/31 01:07:37;;;;;;;4.47;1.10;;;;;;;;;;5048598;28;20052;-69
2021/07/31 01:10:04;;;;;;;3.58;1.40;;;;;;;;;;5049978;28;20029;-69
2021/07/31 01:12:31;;;;;;;6.57;1.63;;;;;;;;;;5048666;28;20033;-69
2021/07/31 01:14:58;;;;;;;10.70;1.30;;;;;;;;;;5049434;28;20045;-69
2021/07/31 01:17:24;;;;;;;6.90;1.27;;;;;;;;;;5068188;28;20048;-69
2021/07/31 01:19:50;;;;;;;;;;;;;;;;;;5068948;28;20032;-69
2021/07/31 01:22:16;;;;;;;1.17;0.67;;;;;;;;;;5070819;28;19916;-69
2021/07/31 01:24:43;;;;;;;2.67;1.08;;;;;;;;;;5068459;28;20055;-69
2021/07/31 01:27:09;;;;;;;2.97;0.95;;;;;;;;;;5068423;28;20127;-69
2021/07/31 01:29:35;;;;;;;;;;;;;;;;;;5069255;28;20043;-68
2021/07/31 01:32:01;;;;;;;6.50;1.05;;;;;;;;;;5052009;28;19917;-69
2021/07/31 01:34:27;;;;;;;3.00;0.98;;;;;;;;;;5048346;28;20521;-69
2021/07/31 01:36:53;;;;;;;5.70;0.95;;;;;;;;;;5048396;28;20187;-68
2021/07/31 01:39:19;;;;;;;5.55;1.48;;;;;;;;;;5048517;28;20044;-70
2021/07/31 01:41:46;;;;;;;9.82;1.10;;;;;;;;;;5044752;28;20491;-68
2021/07/31 01:44:12;;;;;;;7.35;1.33;;;;;;;;;;5028362;28;20038;-68
2021/07/31 01:46:38;;;;;;;8.90;1.10;;;;;;;;;;5036331;28;20127;-68
2021/07/31 01:49:04;;;;;;;;;;;;;;;;;;5028848;28;20041;-68
2021/07/31 01:51:30;;;;;;;10.33;1.60;;;;;;;;;;5027727;28;19920;-69
2021/07/31 01:53:58;;;;;;;5.20;1.35;;;;;;;;;;5027586;28;20068;-69
2021/07/31 01:56:24;;;;;;;8.35;1.17;;;;;;;;;;5030310;28;20080;-68
2021/07/31 01:58:52;;;;;;;7.45;0.98;;;;;;;;;;5047728;28;20037;-69
2021/07/31 02:01:18;;;;;;;5.40;1.70;;;;;;;;;;5049368;28;20112;-69
2021/07/31 02:03:44;;;;;;;8.40;1.38;;;;;;;;;;5047353;28;20037;-69
2021/07/31 02:06:10;;;;;;;;;;;;;;;;;;5049932;28;20045;-69
2021/07/31 02:08:36;;;;;;;2.95;0.90;;;;;;;;;;5047002;28;19924;-69
2021/07/31 02:11:02;;;;;;;10.10;0.68;;;;;;;;;;5048882;28;20100;-68
2021/07/31 02:13:29;;;;;;;4.60;1.40;;;;;;;;;;5046252;28;20040;-69
2021/07/31 02:15:55;;;;;;;5.78;1.02;;;;;;;;;;5046544;28;20033;-69
2021/07/31 02:18:21;;;;;;;4.32;1.10;;;;;;;;;;5047579;28;20041;-69
2021/07/31 02:20:47;;;;;;;2.35;1.20;;;;;;;;;;5048337;28;20037;-69
2021/07/31 02:23:14;;;;;;;3.60;0.90;;;;;;;;;;5048752;28;20106;-68
2021/07/31 02:25:40;;;;;;;6.07;1.00;;;;;;;;;;5047906;28;20044;-69
2021/07/31 02:28:07;;;;;;;2.00;0.77;;;;;;;;;;5047291;28;20044;-69
2021/07/31 02:30:34;;;;;;;3.60;0.90;;;;;;;;;;5046602;28;20037;-69
2021/07/31 02:33:00;;;;;;;8.32;1.30;;;;;;;;;;5047089;28;20087;-70
2021/07/31 02:35:33;;;;;;;6.28;1.23;;;;;;;;;;5047242;28;20044;-69
2021/07/31 02:37:59;;;;;;;5.88;1.20;;;;;;;;;;5047087;28;20056;-69
2021/07/31 02:40:25;;;;;;;6.25;1.38;;;;;;;;;;5047062;28;20037;-69
2021/07/31 02:42:52;;;;;;;1.83;1.00;;;;;;;;;;5047450;28;20032;-68
2021/07/31 02:45:20;;;;;;;3.55;0.98;;;;;;;;;;5048436;28;20044;-68
2021/07/31 02:47:46;;;;;;;4.07;1.08;;;;;;;;;;5067376;28;20048;-69
2021/07/31 02:50:12;;;;;;;3.80;0.90;;;;;;;;;;5067509;28;20044;-69
2021/07/31 02:52:39;;;;;;;5.85;1.20;;;;;;;;;;5067345;28;20047;-69
2021/07/31 02:55:06;;;;;;;3.42;1.10;;;;;;;;;;5067481;28;20040;-69
2021/07/31 02:57:32;;;;;;;3.15;1.20;;;;;;;;;;5067143;28;20124;-68
2021/07/31 02:59:58;;;;;;;5.03;1.17;;;;;;;;;;5067459;28;20323;-68
2021/07/31 03:02:25;;;;;;;3.88;0.85;;;;;;;;;;5063063;28;20351;-69
2021/07/31 03:04:53;;;;;;;4.55;1.17;;;;;;;;;;5046518;28;20055;-68
2021/07/31 03:07:19;;;;;;;3.88;0.80;;;;;;;;;;5046791;28;20128;-68
2021/07/31 03:09:46;;;;;;;5.30;1.02;;;;;;;;;;5047363;28;20036;-69
2021/07/31 03:12:12;;;;;;;5.47;1.00;;;;;;;;;;5046613;28;20055;-69
2021/07/31 03:14:39;;;;;;;2.40;0.98;;;;;;;;;;5046503;28;20060;-69
2021/07/31 03:17:05;;;;;;;3.20;1.23;;;;;;;;;;5046356;28;20505;-69
2021/07/31 03:19:31;;;;;;;5.13;1.00;;;;;;;;;;5044927;28;20048;-68
2021/07/31 03:21:57;;;;;;;5.40;1.30;;;;;;;;;;5046247;28;20037;-69
2021/07/31 03:24:24;;;;;;;;;;;;;;;;;;5063512;28;20113;-69
2021/07/31 03:26:50;;;;;;;6.60;1.17;;;;;;;;;;5047704;28;19924;-68
2021/07/31 03:29:16;;;;;;;8.02;1.00;;;;;;;;;;5063068;28;20037;-69
2021/07/31 03:31:42;;;;;;;2.50;0.98;;;;;;;;;;5062116;28;20041;-69
2021/07/31 03:34:08;;;;;;;;;;;;;;;;;;5048389;28;20029;-69
2021/07/31 03:36:34;;;;;;;4.43;0.90;;;;;;;;;;5063977;28;19916;-68
2021/07/31 03:39:01;;;;;;;5.38;2.00;;;;;;;;;;5047228;28;20044;-68
2021/07/31 03:41:28;;;;;;;6.43;1.30;;;;;;;;;;5047455;28;20041;-68
2021/07/31 03:43:54;;;;;;;4.43;0.98;;;;;;;;;;5048693;28;20051;-69
2021/07/31 03:46:20;;;;;;;5.03;1.20;;;;;;;;;;5065108;28;20025;-68
2021/07/31 03:48:46;;;;;;;7.80;1.17;;;;;;;;;;5050967;28;20037;-70
2021/07/31 03:51:15;;;;;;;5.15;0.90;;;;;;;;;;5050686;28;20098;-69
2021/07/31 03:53:41;;;;;;;3.25;1.20;;;;;;;;;;5050651;28;20533;-69
2021/07/31 03:56:08;;;;;;;3.97;0.80;;;;;;;;;;5052075;28;20040;-69
2021/07/31 03:58:34;;;;;;;3.80;1.42;;;;;;;;;;5068190;28;20041;-69
2021/07/31 04:01:01;;;;;;;8.48;1.33;;;;;;;;;;5062607;28;20124;-69
2021/07/31 04:03:27;;;;;;;2.17;1.00;;;;;;;;;;5049461;28;20032;-69
2021/07/31 04:05:53;;;;;;;8.30;1.27;;;;;;;;;;5049744;28;20098;-69
2021/07/31 04:08:19;;;;;;;;;;;;;;;;;;5050367;28;20123;-68
2021/07/31 04:10:45;;;;;;;2.57;1.20;;;;;;;;;;5066436;28;19917;-68
2021/07/31 04:13:11;;;;;;;8.57;1.65;;;;;;;;;;5049733;28;20032;-68
2021/07/31 04:15:41;;;;;;;9.90;2.10;;;;;;;;;;5049758;28;20043;-69
2021/07/31 04:18:09;;;;;;;5.32;1.42;;;;;;;;;;5050245;28;20116;-69
2021/07/31 04:20:35;;;;;;;7.03;1.35;;;;;;;;;;5049751;28;20043;-69
2021/07/31 04:23:01;;;;;;;;;;;;;;;;;;5050560;28;20041;-68
2021/07/31 04:25:27;;;;;;;14.07;1.02;;;;;;;;;;5066852;28;19917;-69
2021/07/31 04:27:53;;;;;;;5.25;1.02;;;;;;;;;;5049782;28;20045;-68
2021/07/31 04:30:21;;;;;;;4.07;0.90;;;;;;;;;;5049408;28;20087;-69
2021/07/31 04:32:47;;;;;;;4.05;1.30;;;;;;;;;;5049083;28;20037;-69
2021/07/31 04:35:13;;;;;;;4.82;1.20;;;;;;;;;;5049746;28;20048;-68
2021/07/31 04:37:40;;;;;;;6.85;1.38;;;;;;;;;;5051024;28;20044;-68
2021/07/31 04:40:06;;;;;;;9.60;2.38;;;;;;;;;;5049922;28;20041;-68
2021/07/31 04:42:33;;;;;;;6.20;2.75;;;;;;;;;;5057665;28;20140;-68
2021/07/31 04:45:00;;;;;;;3.35;1.30;;;;;;;;;;5049869;28;20045;-68
2021/07/31 04:47:26;;;;;;;4.22;1.10;;;;;;;;;;5050429;28;20052;-68
2021/07/31 04:49:52;;;;;;;3.65;1.17;;;;;;;;;;5050169;28;20486;-68
2021/07/31 04:52:19;;;;;;;3.20;1.52;;;;;;;;;;5049867;28;20045;-68
2021/07/31 04:54:45;;;;;;;6.32;1.23;;;;;;;;;;5050949;28;20041;-69
2021/07/31 04:57:13;;;;;;;7.35;2.70;;;;;;;;;;5049356;28;20120;-69
2021/07/31 04:59:42;;;;;;;7.22;1.27;;;;;;;;;;5050789;28;20041;-68
2021/07/31 05:02:08;;;;;;;4.03;1.33;;;;;;;;;;5049755;28;20112;-67
2021/07/31 05:04:34;;;;;;;3.88;1.17;;;;;;;;;;5049898;28;20176;-68
2021/07/31 05:07:00;;;;;;;5.53;1.20;;;;;;;;;;5049170;28;20048;-69
2021/07/31 05:09:27;;;;;;;4.82;1.20;;;;;;;;;;5049428;28;20075;-68
2021/07/31 05:11:53;;;;;;;6.97;1.58;;;;;;;;;;5049277;28;20101;-69
2021/07/31 05:14:19;;;;;;;5.78;1.55;;;;;;;;;;5050197;28;20040;-68
2021/07/31 05:16:46;;;;;;;6.00;1.00;;;;;;;;;;5050310;28;20037;-68
2021/07/31 05:19:12;;;;;;;3.17;1.00;;;;;;;;;;5049138;28;20127;-68
2021/07/31 05:21:41;;;;;;;7.45;1.20;;;;;;;;;;5048763;28;20048;-68
2021/07/31 05:24:07;;;;;;;;;;;;;;;;;;5065884;28;20040;-69
2021/07/31 05:26:33;;;;;;;3.97;0.93;;;;;;;;;;5065463;28;19920;-69
2021/07/31 05:28:59;;;;;;;4.63;1.27;;;;;;;;;;5065780;28;20044;-69
2021/07/31 05:31:25;;;;;;;6.53;1.25;;;;;;;;;;5075171;28;20041;-68
2021/07/31 05:33:51;;;;;;;;;;;;;;;;;;5068606;28;20045;-68
2021/07/31 05:36:18;;;;;;;4.87;1.10;;;;;;;;;;5068521;28;19959;-68
2021/07/31 05:38:44;;;;;;;4.97;1.23;;;;;;;;;;5068577;28;20055;-68
2021/07/31 05:41:14;;;;;;;4.93;1.65;;;;;;;;;;5069581;28;20465;-68
2021/07/31 05:43:41;;;;;;;3.53;1.13;;;;;;;;;;5068195;28;20107;-68
2021/07/31 05:46:08;;;;;;;13.70;6.00;;;;;;;;;;5059718;28;20037;-68
2021/07/31 05:48:34;;;;;;;4.47;1.50;;;;;;;;;;5048537;28;20053;-71
2021/07/31 05:51:01;;;;;;;7.63;1.50;;;;;;;;;;5044617;28;20043;-69
2021/07/31 05:53:27;;;;;;;4.40;1.60;;;;;;;;;;5074931;28;20048;-68
2021/07/31 05:55:54;;;;;;;6.78;1.30;;;;;;;;;;5034111;28;20042;-68
2021/07/31 05:58:21;;;;;;;4.88;1.10;;;;;;;;;;5043152;28;20037;-68
2021/07/31 06:00:47;;;;;;;16.83;10.10;;;;;;;;;;5064050;28;20036;-68
2021/07/31 06:03:13;;;;;;;5.63;1.20;;;;;;;;;;5049646;28;20097;-67
2021/07/31 06:05:39;;;;;;;4.50;1.33;;;;;;;;;;5049800;28;20029;-67
2021/07/31 06:08:06;;;;;;;13.73;2.38;;;;;;;;;;5049205;28;20048;-68
2021/07/31 06:10:34;;;;;;;6.28;1.30;;;;;;;;;;5048856;28;20060;-68
2021/07/31 06:13:00;;;;;;;6.07;1.55;;;;;;;;;;5040433;28;20033;-68
2021/07/31 06:15:27;;;;;;;8.07;3.50;;;;;;;;;;5048334;28;20616;-67
2021/07/31 06:17:53;;;;;;;5.90;1.10;;;;;;;;;;5048502;28;20084;-67
2021/07/31 06:20:19;;;;;;;4.70;1.15;;;;;;;;;;5043573;28;20041;-69
2021/07/31 06:22:46;;;;;;;4.78;1.23;;;;;;;;;;5048278;28;20037;-66
2021/07/31 06:25:12;;;;;;;4.10;1.25;;;;;;;;;;5048839;28;20033;-68
2021/07/31 06:27:38;;;;;;;5.25;1.50;;;;;;;;;;5047663;28;20045;-69
2021/07/31 06:30:04;;;;;;;4.85;1.40;;;;;;;;;;5047396;28;20045;-68
2021/07/31 06:32:30;;;;;;;3.58;1.35;;;;;;;;;;5062779;28;20477;-68
2021/07/31 06:34:57;;;;;;;;;;;;;;;;;;5047086;28;20397;-68
2021/07/31 06:37:23;;;;;;;4.83;2.17;;;;;;;;;;5047194;28;20007;-69
2021/07/31 06:39:50;;;;;;;3.13;1.42;;;;;;;;;;5047282;28;20037;-68
2021/07/31 06:42:16;;;;;;;5.78;1.17;;;;;;;;;;5046227;28;20037;-68
2021/07/31 06:44:42;;;;;;;4.85;1.65;;;;;;;;;;5048302;28;20048;-68
2021/07/31 06:47:08;;;;;;;2.33;1.20;;;;;;;;;;5064299;28;20040;-68
2021/07/31 06:49:35;;;;;;;4.28;1.17;;;;;;;;;;5066735;28;20044;-68
2021/07/31 06:52:01;;;;;;;3.25;1.13;;;;;;;;;;5066668;28;20037;-69
2021/07/31 06:54:27;;;;;;;;;;;;;;;;;;5069128;28;20089;-68
2021/07/31 06:56:54;;;;;;;3.03;1.00;;;;;;;;;;5069077;28;19917;-67
2021/07/31 06:59:20;;;;;;;4.93;1.30;;;;;;;;;;5068713;28;20032;-68
2021/07/31 07:01:47;;;;;;;7.05;2.70;;;;;;;;;;5063427;28;20072;-68
2021/07/31 07:04:14;;;;;;;13.38;1.42;;;;;;;;;;5047172;28;20044;-68
2021/07/31 07:06:41;;;;;;;5.35;1.45;;;;;;;;;;5048984;28;20045;-68
2021/07/31 07:09:07;;;;;;;6.68;1.92;;;;;;;;;;5048607;28;20111;-68
2021/07/31 07:11:33;;;;;;;14.85;2.50;;;;;;;;;;5046941;28;20040;-68
2021/07/31 07:14:00;;;;;;;;;;;;;;;;;;5049160;28;20068;-68
2021/07/31 07:16:26;;;;;;;6.47;1.30;;;;;;;;;;5059484;28;19920;-68
2021/07/31 07:18:53;;;;;;;3.28;1.23;;;;;;;;;;5069410;28;20044;-69
2021/07/31 07:21:20;;;;;;;7.85;1.90;;;;;;;;;;5064433;28;20075;-68
2021/07/31 07:23:46;;;;;;;3.15;1.50;;;;;;;;;;5048790;28;20426;-70
2021/07/31 07:26:12;;;;;;;5.97;2.00;;;;;;;;;;5047884;28;20037;-68
2021/07/31 07:28:39;;;;;;;5.55;1.48;;;;;;;;;;5048491;28;20370;-68
2021/07/31 07:31:06;;;;;;;4.75;2.72;;;;;;;;;;5047722;28;20063;-67
2021/07/31 07:33:33;;;;;;;7.20;1.77;;;;;;;;;;5046894;28;20148;-68
2021/07/31 07:35:59;;;;;;;4.65;1.60;;;;;;;;;;5048275;28;20762;-68
2021/07/31 07:38:26;;;;;;;6.22;2.00;;;;;;;;;;5049785;28;20045;-69
2021/07/31 07:40:53;;;;;;;5.05;1.67;;;;;;;;;;5047693;28;20513;-68
2021/07/31 07:43:19;;;;;;;4.32;1.48;;;;;;;;;;5043718;28;20502;-68
2021/07/31 07:45:48;;;;;;;;;;;;;;;;;;5047452;28;20108;-73
2021/07/31 07:48:15;;;;;;;2.45;1.52;;;;;;;;;;5060694;28;19924;-69
2021/07/31 07:50:42;;;;;;;4.55;1.48;;;;;;;;;;5040916;28;20033;-68
2021/07/31 07:53:08;;;;;;;3.95;1.48;;;;;;;;;;5047960;28;20112;-67
2021/07/31 07:55:34;;;;;;;4.53;1.42;;;;;;;;;;5045974;28;20114;-68
2021/07/31 07:58:00;;;;;;;7.53;1.50;;;;;;;;;;5048403;28;20037;-68
2021/07/31 08:00:27;;;;;;;3.42;1.50;;;;;;;;;;5046935;28;20037;-67
2021/07/31 08:02:54;;;;;;;3.75;1.40;;;;;;;;;;5043202;28;20118;-67
2021/07/31 08:05:21;;;;;;;4.47;1.50;;;;;;;;;;5046180;28;20094;-69
2021/07/31 08:07:49;;;;;;;2.80;1.35;;;;;;;;;;5046869;28;20048;-69
2021/07/31 08:10:15;;;;;;;4.32;1.45;;;;;;;;;;5044112;28;20037;-69
2021/07/31 08:12:42;;;;;;;6.03;1.73;;;;;;;;;;5036158;28;20037;-68
2021/07/31 08:15:09;;;;;;;6.35;1.15;;;;;;;;;;5043199;28;20045;-69
2021/07/31 08:17:36;;;;;;;2.85;1.17;;;;;;;;;;5046503;28;20407;-70
2021/07/31 08:20:03;;;;;;;4.93;1.40;;;;;;;;;;5049581;28;20510;-69
2021/07/31 08:22:29;;;;;;;4.50;1.30;;;;;;;;;;5048102;28;20422;-69
2021/07/31 08:24:56;;;;;;;2.40;1.20;;;;;;;;;;5047445;28;20048;-69
2021/07/31 08:27:22;;;;;;;2.75;1.20;;;;;;;;;;5046971;28;20498;-68
2021/07/31 08:29:50;;;;;;;4.90;1.98;;;;;;;;;;5046597;28;20041;-69
2021/07/31 08:32:16;;;;;;;3.47;1.60;;;;;;;;;;5047365;28;20045;-68
2021/07/31 08:34:42;;;;;;;4.25;1.40;;;;;;;;;;5050485;28;20128;-68
2021/07/31 08:37:10;;;;;;;5.65;1.15;;;;;;;;;;5051115;28;20063;-68
2021/07/31 08:39:37;;;;;;;6.50;4.15;;;;;;;;;;5050577;28;20087;-68
2021/07/31 08:42:06;;;;;;;9.73;2.42;;;;;;;;;;5049840;28;20040;-69
2021/07/31 08:44:36;;;;;;;4.28;1.10;;;;;;;;;;5050820;28;20036;-68
2021/07/31 08:47:04;;;;;;;2.92;1.23;;;;;;;;;;5065664;28;20120;-69
2021/07/31 08:49:33;;;;;;;2.15;0.90;;;;;;;;;;5069946;28;20059;-68
2021/07/31 08:52:01;;;;;;;5.38;1.65;;;;;;;;;;5071139;28;20049;-69
2021/07/31 08:54:27;;;;;;;5.43;1.08;;;;;;;;;;5065137;28;20029;-68
2021/07/31 08:56:54;;;;;;;4.32;1.38;;;;;;;;;;5037941;28;20784;-69
2021/07/31 08:59:29;;;;;;;2.15;0.90;;;;;;;;;;5051457;28;20037;-69
2021/07/31 09:01:57;;;;;;;4.80;1.52;;;;;;;;;;5060431;28;20052;-67
2021/07/31 09:04:24;;;;;;;4.22;1.02;;;;;;;;;;5066533;28;20041;-69
2021/07/31 09:06:51;;;;;;;3.28;1.27;;;;;;;;;;5036784;28;20778;-68
2021/07/31 09:09:28;;;;;;;4.30;1.00;;;;;;;;;;5030550;28;20116;-69
2021/07/31 09:12:01;;;;;;;5.90;1.33;;;;;;;;;;5047311;28;20037;-68
2021/07/31 09:14:30;;;;;;;4.75;1.10;;;;;;;;;;5063116;28;20041;-69
2021/07/31 09:16:57;;;;;;;5.53;1.02;;;;;;;;;;5047822;28;20075;-69
2021/07/31 09:19:28;;;;;;;4.53;1.48;;;;;;;;;;5048826;28;20059;-70
2021/07/31 09:22:08;;;;;;;4.90;0.98;;;;;;;;;;5044515;28;20032;-68
2021/07/31 09:24:34;;;;;;;4.45;1.27;;;;;;;;;;5046971;28;20542;-68
2021/07/31 09:27:01;;;;;;;3.67;1.10;;;;;;;;;;5047893;28;20090;-66
2021/07/31 09:29:31;;;;;;;3.92;1.23;;;;;;;;;;5049526;28;20041;-69
2021/07/31 09:31:58;;;;;;;3.80;0.98;;;;;;;;;;5047262;28;20037;-68
2021/07/31 09:34:25;;;;;;;3.33;1.40;;;;;;;;;;5048172;28;20041;-69
2021/07/31 09:37:03;;;;;;;2.10;1.02;;;;;;;;;;5048751;28;20084;-68
2021/07/31 09:39:47;;;;;;;3.03;1.20;;;;;;;;;;5048804;28;20049;-68
2021/07/31 09:42:32;;;;;;;2.75;1.17;;;;;;;;;;5048349;28;20045;-68
2021/07/31 09:44:59;;;;;;;2.40;1.13;;;;;;;;;;5065735;28;20084;-68
2021/07/31 09:47:26;;;;;;;5.95;1.45;;;;;;;;;;5064283;28;20045;-69
2021/07/31 09:49:53;;;;;;;4.78;1.45;;;;;;;;;;5049518;28;20576;-69
2021/07/31 09:52:20;;;;;;;3.15;1.58;;;;;;;;;;5065014;28;20041;-70
2021/07/31 09:54:47;;;;;;;4.47;1.33;;;;;;;;;;5048806;28;20120;-69
2021/07/31 09:57:14;;;;;;;3.72;1.23;;;;;;;;;;5064880;28;20052;-68
2021/07/31 09:59:44;;;;;;;4.82;1.17;;;;;;;;;;5048505;28;20055;-68
2021/07/31 10:02:15;;;;;;;5.22;1.50;;;;;;;;;;5046727;28;20094;-70
2021/07/31 10:04:42;;;;;;;8.07;1.40;;;;;;;;;;5053858;28;20053;-69
2021/07/31 10:07:08;;;;;;;6.63;1.48;;;;;;;;;;5047148;28;20052;-68
2021/07/31 10:09:35;;;;;;;3.72;1.67;;;;;;;;;;5048464;28;20045;-68
2021/07/31 10:12:03;;;;;;;2.78;1.17;;;;;;;;;;5045560;28;20040;-69
2021/07/31 10:14:30;;;;;;;6.32;1.00;;;;;;;;;;5060662;28;20041;-68
2021/07/31 10:16:57;;;;;;;3.40;1.50;;;;;;;;;;5080645;28;20036;-69
2021/07/31 10:19:23;;;;;;;6.28;1.42;;;;;;;;;;5074070;28;20442;-70
2021/07/31 10:21:58;;;;;;;2.35;1.13;;;;;;;;;;5073852;28;20040;-70
2021/07/31 10:24:28;;;;;;;5.57;2.13;;;;;;;;;;5074834;28;20055;-70
2021/07/31 10:27:14;;;;;;;2.92;1.50;;;;;;;;;;5079073;28;20127;-70
2021/07/31 10:29:41;;;;;;;2.90;1.38;;;;;;;;;;5068463;28;20079;-70
2021/07/31 10:32:20;;;;;;;1.95;1.10;;;;;;;;;;5068992;28;20037;-70
2021/07/31 10:34:46;;;;;;;3.63;1.17;;;;;;;;;;5065877;28;20062;-68
2021/07/31 10:37:31;;;;;;;4.57;1.50;;;;;;;;;;5075881;28;20500;-66
2021/07/31 10:39:59;;;;;;;5.85;2.30;;;;;;;;;;5072502;28;20507;-68
2021/07/31 10:42:25;;;;;;;4.03;1.15;;;;;;;;;;5068047;28;20039;-67
2021/07/31 10:45:18;;;;;;;1.80;1.13;;;;;;;;;;5068808;28;20044;-70
2021/07/31 10:47:45;;;;;;;2.53;1.40;;;;;;;;;;5064088;28;20485;-69
2021/07/31 10:50:27;;;;;;;3.45;1.25;;;;;;;;;;5084328;28;20527;-69
2021/07/31 10:53:00;;;;;;;5.82;2.17;;;;;;;;;;5084265;28;20044;-68
2021/07/31 10:55:36;;;;;;;4.28;1.40;;;;;;;;;;5084184;28;20037;-68
2021/07/31 10:58:02;;;;;;;9.60;1.60;;;;;;;;;;5084514;28;20056;-68
2021/07/31 11:00:29;;;;;;;3.45;1.23;;;;;;;;;;5066698;28;20067;-68
2021/07/31 11:02:59;;;;;;;5.90;1.35;;;;;;;;;;5067266;28;20485;-70
2021/07/31 11:05:26;;;;;;;4.65;1.30;;;;;;;;;;5066616;28;20093;-70
2021/07/31 11:07:58;;;;;;;10.43;1.30;;;;;;;;;;5067567;28;20045;-68
2021/07/31 11:10:41;;;;;;;3.40;1.70;;;;;;;;;;5060837;28;20048;-69
2021/07/31 11:13:08;;;;;;;3.35;0.98;;;;;;;;;;5062599;28;20032;-69
2021/07/31 11:15:34;;;;;;;3.75;1.23;;;;;;;;;;5089920;28;20040;-69
2021/07/31 11:18:01;;;;;;;3.78;1.15;;;;;;;;;;5069746;28;20052;-69
2021/07/31 11:20:32;;;;;;;15.57;7.30;;;;;;;;;;5082973;28;20045;-69
2021/07/31 11:23:03;;;;;;;4.35;1.17;;;;;;;;;;5071892;28;20135;-69
2021/07/31 11:25:29;;;;;;;5.45;1.45;;;;;;;;;;5080860;28;20044;-69
2021/07/31 11:27:55;;;;;;;23.30;10.77;;;;;;;;;;5080840;28;20500;-69
2021/07/31 11:30:22;;;;;;;4.57;1.40;;;;;;;;;;5087170;28;20036;-70
2021/07/31 11:32:48;;;;;;;5.80;1.30;;;;;;;;;;5087456;28;20032;-69
2021/07/31 11:35:26;;;;;;;6.40;2.92;;;;;;;;;;5086292;28;20048;-70
2021/07/31 11:37:52;;;;;;;3.38;1.40;;;;;;;;;;5087048;28;20054;-70
2021/07/31 11:40:18;;;;;;;2.03;1.02;;;;;;;;;;5084386;28;20044;-70
2021/07/31 11:42:47;;;;;;;3.30;1.15;;;;;;;;;;5066295;28;20055;-70
2021/07/31 11:45:13;;;;;;;4.85;1.95;;;;;;;;;;5065942;28;20041;-67
2021/07/31 11:47:41;;;;;;;2.22;1.10;;;;;;;;;;5066400;28;20084;-68
2021/07/31 11:50:08;;;;;;;4.15;1.30;;;;;;;;;;5067235;28;20120;-68
2021/07/31 11:52:34;;;;;;;2.10;0.90;;;;;;;;;;5066206;28;20043;-68
2021/07/31 11:55:01;;;;;;;2.13;1.10;;;;;;;;;;5065185;28;20032;-68
2021/07/31 11:57:27;;;;;;;7.68;2.50;;;;;;;;;;5109306;28;20044;-69
2021/07/31 11:59:59;;;;;;;5.25;1.48;;;;;;;;;;5080334;28;20032;-68
2021/07/31 12:02:37;;;;;;;3.72;1.33;;;;;;;;;;5076984;28;20092;-69
2021/07/31 12:05:05;;;;;;;3.88;1.10;;;;;;;;;;5067256;28;20040;-68
2021/07/31 12:07:31;;;;;;;2.72;1.20;;;;;;;;;;5070522;28;20124;-69
2021/07/31 12:09:59;;;;;;;3.25;1.55;;;;;;;;;;5079149;28;20560;-68
2021/07/31 12:12:26;;;;;;;2.78;1.45;;;;;;;;;;5078677;28;20044;-68
2021/07/31 12:15:12;;;;;;;2.70;1.33;;;;;;;;;;5072092;28;20056;-69
2021/07/31 12:17:40;;;;;;;2.58;1.08;;;;;;;;;;5065845;28;20036;-68
2021/07/31 12:20:07;;;;;;;3.28;1.23;;;;;;;;;;5083175;28;20035;-68
2021/07/31 12:22:34;;;;;;;4.07;1.38;;;;;;;;;;5071346;28;20102;-68
2021/07/31 12:25:13;;;;;;;7.72;1.40;;;;;;;;;;5070331;28;20144;-69
2021/07/31 12:27:50;;;;;;;2.55;1.20;;;;;;;;;;5070204;28;20136;-69
2021/07/31 12:30:27;;;;;;;3.03;1.25;;;;;;;;;;5070080;28;20041;-68
2021/07/31 12:32:54;;;;;;;2.67;1.73;;;;;;;;;;5070315;28;20144;-68
2021/07/31 12:35:37;;;;;;;1.85;1.05;;;;;;;;;;5069880;28;20033;-69
2021/07/31 12:38:08;;;;;;;4.18;1.13;;;;;;;;;;5070997;28;20119;-69
2021/07/31 12:40:35;;;;;;;5.88;2.00;;;;;;;;;;5069960;28;20037;-69
2021/07/31 12:43:02;;;;;;;2.38;1.10;;;;;;;;;;5069468;28;20485;-69
2021/07/31 12:45:29;;;;;;;3.85;1.00;;;;;;;;;;5069952;28;20043;-68
2021/07/31 12:47:55;;;;;;;3.33;1.65;;;;;;;;;;5069581;28;20048;-69
2021/07/31 12:50:22;;;;;;;2.85;1.10;;;;;;;;;;5069842;28;20042;-68
2021/07/31 12:52:49;;;;;;;7.18;1.40;;;;;;;;;;5069765;28;20044;-68
2021/07/31 12:55:16;;;;;;;4.00;1.00;;;;;;;;;;5070182;28;20040;-68
2021/07/31 12:57:42;;;;;;;4.30;1.38;;;;;;;;;;5066243;28;20068;-68
2021/07/31 13:00:08;;;;;;;4.90;1.38;;;;;;;;;;5070972;28;20123;-68
2021/07/31 13:02:34;;;;;;;2.38;1.10;;;;;;;;;;5069555;28;20033;-69
2021/07/31 13:05:01;;;;;;;3.22;1.30;;;;;;;;;;5069784;28;20032;-69
2021/07/31 13:07:27;;;;;;;7.53;1.20;;;;;;;;;;5070691;28;20045;-69
2021/07/31 13:09:53;;;;;;;;;;;;;;;;;;5069889;28;20041;-69
2021/07/31 13:12:20;;;;;;;2.90;1.00;;;;;;;;;;5084678;28;19916;-69
2021/07/31 13:14:46;;;;;;;3.25;1.20;;;;;;;;;;5067999;28;20131;-69
2021/07/31 13:17:12;;;;;;;4.95;1.00;;;;;;;;;;5066955;28;20055;-69
2021/07/31 13:19:39;;;;;;;2.17;0.98;;;;;;;;;;5068252;28;20037;-69
2021/07/31 13:22:05;;;;;;;;;;;;;;;;;;5066678;28;20098;-69
2021/07/31 13:24:31;;;;;;;4.18;1.30;;;;;;;;;;5068100;28;19916;-69
2021/07/31 13:26:57;;;;;;;4.70;1.58;;;;;;;;;;5067286;28;20082;-68
2021/07/31 13:29:23;;;;;;;;;;;;;;;;;;5068143;28;20043;-69
2021/07/31 13:31:49;;;;;;;3.03;1.73;;;;;;;;;;5066246;28;19916;-69
2021/07/31 13:34:15;;;;;;;;;;;;;;;;;;5067897;28;20039;-68
2021/07/31 13:36:44;;;;;;;5.70;1.20;;;;;;;;;;5066810;28;19916;-69
2021/07/31 13:39:14;;;;;;;5.18;1.45;;;;;;;;;;5067600;28;20102;-69
2021/07/31 13:41:41;;;;;;;3.45;1.33;;;;;;;;;;5065395;28;20120;-68
2021/07/31 13:44:15;;;;;;;3.70;1.40;;;;;;;;;;5067301;28;20070;-69
2021/07/31 13:46:41;;;;;;;7.60;1.55;;;;;;;;;;5069192;28;20040;-69
2021/07/31 13:49:09;;;;;;;2.65;1.63;;;;;;;;;;5068742;28;20044;-68
2021/07/31 13:51:35;;;;;;;4.88;1.63;;;;;;;;;;5064866;28;20055;-69
2021/07/31 13:54:02;;;;;;;5.50;1.38;;;;;;;;;;5061489;28;20669;-72
2021/07/31 13:56:29;;;;;;;2.03;1.48;;;;;;;;;;5066235;28;20044;-69
2021/07/31 13:58:56;;;;;;;6.80;1.60;;;;;;;;;;5063605;28;20052;-70
2021/07/31 14:01:22;;;;;;;5.63;1.40;;;;;;;;;;5083812;28;20041;-69
2021/07/31 14:03:49;;;;;;;3.00;1.27;;;;;;;;;;5083854;28;20040;-68
2021/07/31 14:06:15;;;;;;;4.03;1.92;;;;;;;;;;5083685;28;20152;-70
2021/07/31 14:08:42;;;;;;;2.53;1.52;;;;;;;;;;5084727;28;20089;-69
2021/07/31 14:11:08;;;;;;;5.55;1.75;;;;;;;;;;5083702;28;20111;-68
2021/07/31 14:13:35;;;;;;;8.85;3.15;;;;;;;;;;5064727;28;20048;-69
2021/07/31 14:16:02;;;;;;;6.82;3.08;;;;;;;;;;5090720;28;20082;-68
2021/07/31 14:18:28;;;;;;;8.00;3.20;;;;;;;;;;5066994;28;20106;-69
2021/07/31 14:20:54;;;;;;;2.30;1.50;;;;;;;;;;5066819;28;20063;-68
2021/07/31 14:23:20;;;;;;;5.53;1.50;;;;;;;;;;5066400;28;20037;-69
2021/07/31 14:25:46;;;;;;;4.38;1.80;;;;;;;;;;5067676;28;20509;-70
2021/07/31 14:28:13;;;;;;;5.72;1.30;;;;;;;;;;5067572;28;20051;-69
2021/07/31 14:30:39;;;;;;;4.30;2.08;;;;;;;;;;5066295;28;20039;-69
2021/07/31 14:33:05;;;;;;;3.45;1.55;;;;;;;;;;5066866;28;20048;-69
2021/07/31 14:35:32;;;;;;;3.08;1.40;;;;;;;;;;5066904;28;20037;-68
2021/07/31 14:37:58;;;;;;;3.45;1.40;;;;;;;;;;5067063;28;20064;-69
2021/07/31 14:40:24;;;;;;;;;;;;;;;;;;5066507;28;20077;-68
2021/07/31 14:42:51;;;;;;;23.37;12.20;;;;;;;;;;5060820;28;19927;-68
2021/07/31 14:45:17;;;;;;;5.97;2.20;;;;;;;;;;5067656;28;20267;-69
2021/07/31 14:47:43;;;;;;;5.07;1.50;;;;;;;;;;5074808;28;20076;-68
2021/07/31 14:50:10;;;;;;;2.58;1.10;;;;;;;;;;5084471;28;20033;-69